Thetis Glory — 3EPU4 — position and weather

sailwx.info

Track history (hours):
 
Tides and Currents Weather Stations Pressure Air Temp Water Temp Dewpoint Dewpoint Depression Visibility Wind Speed Wind Dir Waves Ship Positions

Thetis Glory

Last reported at 2018-Jan-22 23:18 UTC. Time now 2018-Jan-23 16:14 UTC.
Position N 39°48' E 018°30'.

Length 226 m; draft 7.7 m.

Type: Tanker. MMSI: 351704000.

Date/timePositionNaut miles runAvg speedWind from/ knotsBaromVisibWave heightAir tempDewpointWater temp
2018-Jan-22 23:18N 39°48' E 018°30'2 7.9
2018-Jan-22 23:00N 39°50' E 018°31'4 8.1
2018-Jan-22 22:30N 39°54' E 018°32'4 8.0
2018-Jan-22 22:00N 39°58' E 018°33'4 8.2
2018-Jan-22 21:29N 40°02' E 018°35'372 7.1
2018-Jan-20 17:30N 44°39' E 012°60'4 7.3
2018-Jan-20 17:00N 44°43' E 012°58'4 7.4
2018-Jan-20 16:30N 44°46' E 012°56'4 7.3
2018-Jan-20 16:00N 44°49' E 012°54'4 7.3
2018-Jan-20 15:30N 44°53' E 012°52'4 7.4
2018-Jan-20 15:00N 44°56' E 012°50'4 7.4
2018-Jan-20 14:30N 44°59' E 012°48'4 7.4
2018-Jan-20 14:00N 45°03' E 012°45'4 7.5
2018-Jan-20 13:30N 45°06' E 012°43'4 7.2
2018-Jan-20 12:58N 45°08' E 012°38'4 7.1
2018-Jan-20 12:25N 45°10' E 012°34'3 6.8
2018-Jan-20 12:00N 45°11' E 012°30'4 7.0
2018-Jan-20 11:30N 45°13' E 012°25'3 6.7
2018-Jan-20 11:00N 45°14' E 012°21'3 5.9
2018-Jan-20 10:30N 45°14' E 012°17'1 2.2
2018-Jan-20 09:58N 45°13' E 012°16'0 0.0
2018-Jan-20 09:22N 45°13' E 012°16'0 0.0
2018-Jan-20 08:58N 45°13' E 012°16'0 0.0
2018-Jan-20 07:58N 45°13' E 012°16'0 0.0
2018-Jan-20 05:43N 45°13' E 012°16'0 0.0
2018-Jan-20 05:19N 45°13' E 012°16'0 0.0
2018-Jan-20 03:58N 45°13' E 012°16'0 0.0
2018-Jan-20 03:16N 45°13' E 012°16'0 0.0
2018-Jan-20 02:58N 45°13' E 012°16'0 0.0
2018-Jan-20 02:28N 45°13' E 012°16'0 0.0
2018-Jan-20 01:58N 45°13' E 012°16'0 0.0
2018-Jan-20 00:10N 45°13' E 012°16'0 0.0
2018-Jan-19 23:58N 45°13' E 012°16'0 0.0
2018-Jan-19 23:25N 45°13' E 012°16'0 0.0
2018-Jan-19 22:55N 45°13' E 012°16'0 0.0
2018-Jan-19 22:28N 45°13' E 012°16'0 0.0
2018-Jan-19 21:55N 45°13' E 012°16'0 0.0
2018-Jan-19 20:58N 45°13' E 012°16'0 0.0
2018-Jan-19 20:28N 45°13' E 012°16'0 0.0
2018-Jan-19 19:55N 45°13' E 012°16'0 0.0
2018-Jan-19 19:25N 45°13' E 012°16'0 0.0
2018-Jan-19 18:58N 45°13' E 012°16'0 0.0
2018-Jan-19 16:58N 45°13' E 012°16'0 0.0
2018-Jan-19 16:16N 45°13' E 012°16'0 0.0
2018-Jan-19 15:58N 45°13' E 012°16'0 0.0
2018-Jan-19 15:04N 45°13' E 012°16'0 0.0
2018-Jan-19 13:04N 45°13' E 012°16'0 0.0
2018-Jan-19 12:55N 45°13' E 012°16'0 0.0
2018-Jan-19 12:19N 45°13' E 012°16'0 0.0
2018-Jan-19 11:55N 45°13' E 012°16'0 0.0
2018-Jan-19 11:22N 45°13' E 012°16'0 0.0
2018-Jan-19 10:52N 45°13' E 012°16'0 0.0
2018-Jan-19 10:28N 45°13' E 012°16'0 0.0
2018-Jan-19 09:58N 45°13' E 012°16'0 0.0
2018-Jan-19 09:19N 45°13' E 012°16'0 0.0
2018-Jan-19 08:52N 45°13' E 012°16'0 0.0
2018-Jan-19 08:13N 45°13' E 012°16'0 0.0
2018-Jan-19 07:58N 45°13' E 012°16'0 0.0
2018-Jan-19 07:28N 45°13' E 012°16'0 0.0
2018-Jan-19 06:58N 45°13' E 012°16'0 0.0
2018-Jan-19 06:25N 45°13' E 012°16'0 0.0
2018-Jan-19 05:52N 45°13' E 012°16'0 0.0
2018-Jan-19 05:28N 45°13' E 012°16'0 0.0
2018-Jan-19 04:58N 45°13' E 012°16'0 0.0
2018-Jan-19 04:28N 45°13' E 012°16'0 0.0
2018-Jan-19 03:58N 45°13' E 012°16'0 0.0
2018-Jan-19 03:28N 45°13' E 012°16'0 0.0
2018-Jan-19 02:52N 45°13' E 012°16'0 0.0
2018-Jan-19 02:25N 45°13' E 012°16'0 0.0
2018-Jan-19 01:58N 45°13' E 012°16'0 0.0
2018-Jan-19 01:13N 45°13' E 012°16'0 0.0
2018-Jan-19 00:58N 45°13' E 012°16'0 0.0
2018-Jan-19 00:19N 45°13' E 012°16'0 0.0
2018-Jan-18 23:58N 45°13' E 012°16'0 0.0
2018-Jan-18 23:28N 45°13' E 012°16'0 0.0
2018-Jan-18 22:58N 45°13' E 012°16'0 0.0
2018-Jan-18 22:25N 45°13' E 012°16'0 0.0
2018-Jan-18 21:58N 45°13' E 012°16'0 0.0
2018-Jan-18 21:25N 45°13' E 012°16'0 0.0
2018-Jan-18 20:58N 45°13' E 012°16'0 0.0
2018-Jan-18 19:43N 45°13' E 012°16'0 0.0
2018-Jan-18 13:55N 45°13' E 012°16'0 0.0
2018-Jan-18 13:13N 45°13' E 012°16'0 0.0
2018-Jan-18 12:58N 45°13' E 012°16'0 0.0
2018-Jan-18 11:40N 45°13' E 012°16'0 0.0
2018-Jan-18 11:25N 45°13' E 012°16'0 0.0
2018-Jan-18 10:58N 45°13' E 012°16'0 0.0
2018-Jan-18 10:28N 45°13' E 012°16'0 0.0
2018-Jan-18 09:58N 45°13' E 012°16'0 0.0
2018-Jan-18 09:25N 45°13' E 012°16'0 0.0
2018-Jan-18 08:55N 45°13' E 012°16'0 0.0
2018-Jan-18 08:19N 45°13' E 012°16'0 0.0
2018-Jan-18 07:58N 45°13' E 012°16'0 0.0
2018-Jan-18 07:25N 45°13' E 012°16'0 0.0
2018-Jan-18 06:58N 45°13' E 012°16'0 0.0
2018-Jan-18 06:28N 45°13' E 012°16'0 0.0
2018-Jan-18 05:58N 45°13' E 012°16'0 0.0
2018-Jan-18 05:28N 45°13' E 012°16'0 0.0
2018-Jan-18 04:58N 45°13' E 012°16'0 0.0
2018-Jan-18 04:28N 45°13' E 012°16'0 0.0
2018-Jan-18 03:52N 45°13' E 012°16'0 0.0
2018-Jan-18 03:28N 45°13' E 012°16'0 0.0
2018-Jan-18 02:58N 45°13' E 012°16'0 0.0
2018-Jan-18 02:28N 45°13' E 012°16'0 0.0
2018-Jan-18 01:58N 45°13' E 012°16'0 0.0
2018-Jan-18 01:28N 45°13' E 012°16'0 0.0
2018-Jan-18 00:55N 45°13' E 012°16'0 0.0
2018-Jan-17 23:58N 45°13' E 012°16'0 0.0
2018-Jan-17 23:46N 45°13' E 012°16'  
Track history (hours):
 
Tides and Currents Weather Stations Pressure Air Temp Water Temp Dewpoint Dewpoint Depression Visibility Wind Speed Wind Dir Waves Ship Positions

Thetis Glory

Last reported at 2018-Jan-22 23:18 UTC. Time now 2018-Jan-23 16:14 UTC.
Position N 39°48' E 018°30'.

Length 226 m; draft 7.7 m.

Type: Tanker. MMSI: 351704000.

Date/timePositionNaut miles runAvg speedWind from/ knotsBaromVisibWave heightAir tempDewpointWater temp
2018-Jan-22 23:18N 39°48' E 018°30'2 7.9
2018-Jan-22 23:00N 39°50' E 018°31'4 8.1
2018-Jan-22 22:30N 39°54' E 018°32'4 8.0
2018-Jan-22 22:00N 39°58' E 018°33'4 8.2
2018-Jan-22 21:29N 40°02' E 018°35'372 7.1
2018-Jan-20 17:30N 44°39' E 012°60'4 7.3
2018-Jan-20 17:00N 44°43' E 012°58'4 7.4
2018-Jan-20 16:30N 44°46' E 012°56'4 7.3
2018-Jan-20 16:00N 44°49' E 012°54'4 7.3
2018-Jan-20 15:30N 44°53' E 012°52'4 7.4
2018-Jan-20 15:00N 44°56' E 012°50'4 7.4
2018-Jan-20 14:30N 44°59' E 012°48'4 7.4
2018-Jan-20 14:00N 45°03' E 012°45'4 7.5
2018-Jan-20 13:30N 45°06' E 012°43'4 7.2
2018-Jan-20 12:58N 45°08' E 012°38'4 7.1
2018-Jan-20 12:25N 45°10' E 012°34'3 6.8
2018-Jan-20 12:00N 45°11' E 012°30'4 7.0
2018-Jan-20 11:30N 45°13' E 012°25'3 6.7
2018-Jan-20 11:00N 45°14' E 012°21'3 5.9
2018-Jan-20 10:30N 45°14' E 012°17'1 2.2
2018-Jan-20 09:58N 45°13' E 012°16'0 0.0
2018-Jan-20 09:22N 45°13' E 012°16'0 0.0
2018-Jan-20 08:58N 45°13' E 012°16'0 0.0
2018-Jan-20 07:58N 45°13' E 012°16'0 0.0
2018-Jan-20 05:43N 45°13' E 012°16'0 0.0
2018-Jan-20 05:19N 45°13' E 012°16'0 0.0
2018-Jan-20 03:58N 45°13' E 012°16'0 0.0
2018-Jan-20 03:16N 45°13' E 012°16'0 0.0
2018-Jan-20 02:58N 45°13' E 012°16'0 0.0
2018-Jan-20 02:28N 45°13' E 012°16'0 0.0
2018-Jan-20 01:58N 45°13' E 012°16'0 0.0
2018-Jan-20 00:10N 45°13' E 012°16'0 0.0
2018-Jan-19 23:58N 45°13' E 012°16'0 0.0
2018-Jan-19 23:25N 45°13' E 012°16'0 0.0
2018-Jan-19 22:55N 45°13' E 012°16'0 0.0
2018-Jan-19 22:28N 45°13' E 012°16'0 0.0
2018-Jan-19 21:55N 45°13' E 012°16'0 0.0
2018-Jan-19 20:58N 45°13' E 012°16'0 0.0
2018-Jan-19 20:28N 45°13' E 012°16'0 0.0
2018-Jan-19 19:55N 45°13' E 012°16'0 0.0
2018-Jan-19 19:25N 45°13' E 012°16'0 0.0
2018-Jan-19 18:58N 45°13' E 012°16'0 0.0
2018-Jan-19 16:58N 45°13' E 012°16'0 0.0
2018-Jan-19 16:16N 45°13' E 012°16'0 0.0
2018-Jan-19 15:58N 45°13' E 012°16'0 0.0
2018-Jan-19 15:04N 45°13' E 012°16'0 0.0
2018-Jan-19 13:04N 45°13' E 012°16'0 0.0
2018-Jan-19 12:55N 45°13' E 012°16'0 0.0
2018-Jan-19 12:19N 45°13' E 012°16'0 0.0
2018-Jan-19 11:55N 45°13' E 012°16'0 0.0
2018-Jan-19 11:22N 45°13' E 012°16'0 0.0
2018-Jan-19 10:52N 45°13' E 012°16'0 0.0
2018-Jan-19 10:28N 45°13' E 012°16'0 0.0
2018-Jan-19 09:58N 45°13' E 012°16'0 0.0
2018-Jan-19 09:19N 45°13' E 012°16'0 0.0
2018-Jan-19 08:52N 45°13' E 012°16'0 0.0
2018-Jan-19 08:13N 45°13' E 012°16'0 0.0
2018-Jan-19 07:58N 45°13' E 012°16'0 0.0
2018-Jan-19 07:28N 45°13' E 012°16'0 0.0
2018-Jan-19 06:58N 45°13' E 012°16'0 0.0
2018-Jan-19 06:25N 45°13' E 012°16'0 0.0
2018-Jan-19 05:52N 45°13' E 012°16'0 0.0
2018-Jan-19 05:28N 45°13' E 012°16'0 0.0
2018-Jan-19 04:58N 45°13' E 012°16'0 0.0
2018-Jan-19 04:28N 45°13' E 012°16'0 0.0
2018-Jan-19 03:58N 45°13' E 012°16'0 0.0
2018-Jan-19 03:28N 45°13' E 012°16'0 0.0
2018-Jan-19 02:52N 45°13' E 012°16'0 0.0
2018-Jan-19 02:25N 45°13' E 012°16'0 0.0
2018-Jan-19 01:58N 45°13' E 012°16'0 0.0
2018-Jan-19 01:13N 45°13' E 012°16'0 0.0
2018-Jan-19 00:58N 45°13' E 012°16'0 0.0
2018-Jan-19 00:19N 45°13' E 012°16'0 0.0
2018-Jan-18 23:58N 45°13' E 012°16'0 0.0
2018-Jan-18 23:28N 45°13' E 012°16'0 0.0
2018-Jan-18 22:58N 45°13' E 012°16'0 0.0
2018-Jan-18 22:25N 45°13' E 012°16'0 0.0
2018-Jan-18 21:58N 45°13' E 012°16'0 0.0
2018-Jan-18 21:25N 45°13' E 012°16'0 0.0
2018-Jan-18 20:58N 45°13' E 012°16'0 0.0
2018-Jan-18 19:43N 45°13' E 012°16'0 0.0
2018-Jan-18 13:55N 45°13' E 012°16'0 0.0
2018-Jan-18 13:13N 45°13' E 012°16'0 0.0
2018-Jan-18 12:58N 45°13' E 012°16'0 0.0
2018-Jan-18 11:40N 45°13' E 012°16'0 0.0
2018-Jan-18 11:25N 45°13' E 012°16'0 0.0
2018-Jan-18 10:58N 45°13' E 012°16'0 0.0
2018-Jan-18 10:28N 45°13' E 012°16'0 0.0
2018-Jan-18 09:58N 45°13' E 012°16'0 0.0
2018-Jan-18 09:25N 45°13' E 012°16'0 0.0
2018-Jan-18 08:55N 45°13' E 012°16'0 0.0
2018-Jan-18 08:19N 45°13' E 012°16'0 0.0
2018-Jan-18 07:58N 45°13' E 012°16'0 0.0
2018-Jan-18 07:25N 45°13' E 012°16'0 0.0
2018-Jan-18 06:58N 45°13' E 012°16'0 0.0
2018-Jan-18 06:28N 45°13' E 012°16'0 0.0
2018-Jan-18 05:58N 45°13' E 012°16'0 0.0
2018-Jan-18 05:28N 45°13' E 012°16'0 0.0
2018-Jan-18 04:58N 45°13' E 012°16'0 0.0
2018-Jan-18 04:28N 45°13' E 012°16'0 0.0
2018-Jan-18 03:52N 45°13' E 012°16'0 0.0
2018-Jan-18 03:28N 45°13' E 012°16'0 0.0
2018-Jan-18 02:58N 45°13' E 012°16'0 0.0
2018-Jan-18 02:28N 45°13' E 012°16'0 0.0
2018-Jan-18 01:58N 45°13' E 012°16'0 0.0
2018-Jan-18 01:28N 45°13' E 012°16'0 0.0
2018-Jan-18 00:55N 45°13' E 012°16'0 0.0
2018-Jan-17 23:58N 45°13' E 012°16'0 0.0
2018-Jan-17 23:46N 45°13' E 012°16'  

Dump ship's entire track history